sensor_id;sensor_type;location;lat;lon;timestamp;P1;durP1;ratioP1;P2;durP2;ratioP2
75054;SDS011;63636;44.746;10.488;2023-04-15T00:00:10;2.50;;;1.27;;
75054;SDS011;63636;44.746;10.488;2023-04-15T00:02:38;5.05;;;1.77;;
75054;SDS011;63636;44.746;10.488;2023-04-15T00:05:04;6.57;;;2.30;;
75054;SDS011;63636;44.746;10.488;2023-04-15T00:07:30;5.53;;;1.85;;
75054;SDS011;63636;44.746;10.488;2023-04-15T00:09:56;1.85;;;1.13;;
75054;SDS011;63636;44.746;10.488;2023-04-15T00:12:23;2.72;;;1.02;;
75054;SDS011;63636;44.746;10.488;2023-04-15T00:14:48;3.17;;;0.88;;
75054;SDS011;63636;44.746;10.488;2023-04-15T00:17:14;2.85;;;1.00;;
75054;SDS011;63636;44.746;10.488;2023-04-15T00:19:40;3.78;;;1.13;;
75054;SDS011;63636;44.746;10.488;2023-04-15T00:22:06;2.75;;;1.00;;
75054;SDS011;63636;44.746;10.488;2023-04-15T00:24:32;4.07;;;1.20;;
75054;SDS011;63636;44.746;10.488;2023-04-15T00:26:58;2.78;;;0.98;;
75054;SDS011;63636;44.746;10.488;2023-04-15T00:29:24;2.25;;;1.00;;
75054;SDS011;63636;44.746;10.488;2023-04-15T00:31:50;2.03;;;0.90;;
75054;SDS011;63636;44.746;10.488;2023-04-15T00:34:15;4.03;;;1.10;;
75054;SDS011;63636;44.746;10.488;2023-04-15T00:36:42;3.13;;;1.08;;
75054;SDS011;63636;44.746;10.488;2023-04-15T00:39:07;2.55;;;1.00;;
75054;SDS011;63636;44.746;10.488;2023-04-15T00:41:33;1.95;;;1.00;;
75054;SDS011;63636;44.746;10.488;2023-04-15T00:43:59;2.42;;;0.98;;
75054;SDS011;63636;44.746;10.488;2023-04-15T00:46:25;2.90;;;0.93;;
75054;SDS011;63636;44.746;10.488;2023-04-15T00:48:51;2.53;;;0.88;;
75054;SDS011;63636;44.746;10.488;2023-04-15T00:51:18;2.20;;;0.80;;
75054;SDS011;63636;44.746;10.488;2023-04-15T00:53:44;1.98;;;1.15;;
75054;SDS011;63636;44.746;10.488;2023-04-15T00:56:10;3.80;;;1.05;;
75054;SDS011;63636;44.746;10.488;2023-04-15T00:58:36;4.03;;;1.00;;
75054;SDS011;63636;44.746;10.488;2023-04-15T01:01:02;4.35;;;1.10;;
75054;SDS011;63636;44.746;10.488;2023-04-15T01:03:28;2.92;;;1.13;;
75054;SDS011;63636;44.746;10.488;2023-04-15T01:05:54;2.40;;;1.10;;
75054;SDS011;63636;44.746;10.488;2023-04-15T01:08:28;3.40;;;1.27;;
75054;SDS011;63636;44.746;10.488;2023-04-15T01:10:55;1.65;;;1.08;;
75054;SDS011;63636;44.746;10.488;2023-04-15T01:13:22;2.25;;;1.10;;
75054;SDS011;63636;44.746;10.488;2023-04-15T01:15:48;2.92;;;1.10;;
75054;SDS011;63636;44.746;10.488;2023-04-15T01:18:14;4.10;;;1.20;;
75054;SDS011;63636;44.746;10.488;2023-04-15T01:20:40;2.28;;;1.00;;
75054;SDS011;63636;44.746;10.488;2023-04-15T01:23:06;1.90;;;1.00;;
75054;SDS011;63636;44.746;10.488;2023-04-15T01:25:32;5.60;;;1.33;;
75054;SDS011;63636;44.746;10.488;2023-04-15T01:27:57;3.70;;;1.30;;
75054;SDS011;63636;44.746;10.488;2023-04-15T01:30:23;3.60;;;1.25;;
75054;SDS011;63636;44.746;10.488;2023-04-15T01:32:48;2.88;;;1.48;;
75054;SDS011;63636;44.746;10.488;2023-04-15T01:35:32;3.53;;;1.15;;
75054;SDS011;63636;44.746;10.488;2023-04-15T01:38:08;3.58;;;1.40;;
75054;SDS011;63636;44.746;10.488;2023-04-15T01:40:34;4.07;;;1.40;;
75054;SDS011;63636;44.746;10.488;2023-04-15T01:43:01;4.30;;;1.50;;
75054;SDS011;63636;44.746;10.488;2023-04-15T01:45:28;3.90;;;1.52;;
75054;SDS011;63636;44.746;10.488;2023-04-15T01:47:55;3.13;;;1.33;;
75054;SDS011;63636;44.746;10.488;2023-04-15T01:50:22;3.60;;;1.33;;
75054;SDS011;63636;44.746;10.488;2023-04-15T01:52:48;4.18;;;1.30;;
75054;SDS011;63636;44.746;10.488;2023-04-15T01:55:15;3.03;;;1.20;;
75054;SDS011;63636;44.746;10.488;2023-04-15T01:57:42;2.90;;;1.20;;
75054;SDS011;63636;44.746;10.488;2023-04-15T02:00:09;3.58;;;1.25;;
75054;SDS011;63636;44.746;10.488;2023-04-15T02:02:42;1.92;;;1.20;;
75054;SDS011;63636;44.746;10.488;2023-04-15T02:05:10;4.75;;;1.40;;
75054;SDS011;63636;44.746;10.488;2023-04-15T02:07:37;4.05;;;1.48;;
75054;SDS011;63636;44.746;10.488;2023-04-15T02:10:04;2.45;;;1.20;;
75054;SDS011;63636;44.746;10.488;2023-04-15T02:12:29;2.95;;;1.35;;
75054;SDS011;63636;44.746;10.488;2023-04-15T02:14:56;4.38;;;1.40;;
75054;SDS011;63636;44.746;10.488;2023-04-15T02:17:23;2.88;;;1.30;;
75054;SDS011;63636;44.746;10.488;2023-04-15T02:19:50;2.97;;;1.38;;
75054;SDS011;63636;44.746;10.488;2023-04-15T02:22:16;2.58;;;1.10;;
75054;SDS011;63636;44.746;10.488;2023-04-15T02:24:46;3.63;;;1.10;;
75054;SDS011;63636;44.746;10.488;2023-04-15T02:27:16;2.40;;;1.10;;
75054;SDS011;63636;44.746;10.488;2023-04-15T02:29:44;2.88;;;1.20;;
75054;SDS011;63636;44.746;10.488;2023-04-15T02:32:11;3.05;;;1.20;;
75054;SDS011;63636;44.746;10.488;2023-04-15T02:34:39;2.33;;;1.10;;
75054;SDS011;63636;44.746;10.488;2023-04-15T02:37:09;3.10;;;1.23;;
75054;SDS011;63636;44.746;10.488;2023-04-15T02:39:37;3.53;;;1.20;;
75054;SDS011;63636;44.746;10.488;2023-04-15T02:42:04;2.78;;;1.17;;
75054;SDS011;63636;44.746;10.488;2023-04-15T02:44:32;3.33;;;1.20;;
75054;SDS011;63636;44.746;10.488;2023-04-15T02:47:02;3.90;;;1.20;;
75054;SDS011;63636;44.746;10.488;2023-04-15T02:49:30;3.10;;;1.10;;
75054;SDS011;63636;44.746;10.488;2023-04-15T02:51:57;2.22;;;1.13;;
75054;SDS011;63636;44.746;10.488;2023-04-15T02:54:25;2.20;;;1.02;;
75054;SDS011;63636;44.746;10.488;2023-04-15T02:56:54;2.72;;;1.00;;
75054;SDS011;63636;44.746;10.488;2023-04-15T02:59:22;3.83;;;1.20;;
75054;SDS011;63636;44.746;10.488;2023-04-15T03:01:48;1.95;;;0.90;;
75054;SDS011;63636;44.746;10.488;2023-04-15T03:04:15;2.78;;;1.10;;
75054;SDS011;63636;44.746;10.488;2023-04-15T03:06:42;2.63;;;1.08;;
75054;SDS011;63636;44.746;10.488;2023-04-15T03:09:09;2.97;;;1.00;;
75054;SDS011;63636;44.746;10.488;2023-04-15T03:11:37;2.55;;;1.10;;
75054;SDS011;63636;44.746;10.488;2023-04-15T03:14:08;2.78;;;0.93;;
75054;SDS011;63636;44.746;10.488;2023-04-15T03:16:41;3.88;;;1.10;;
75054;SDS011;63636;44.746;10.488;2023-04-15T03:19:08;2.13;;;0.75;;
75054;SDS011;63636;44.746;10.488;2023-04-15T03:21:35;2.70;;;0.90;;
75054;SDS011;63636;44.746;10.488;2023-04-15T03:24:01;3.30;;;0.88;;
75054;SDS011;63636;44.746;10.488;2023-04-15T03:26:29;2.67;;;1.00;;
75054;SDS011;63636;44.746;10.488;2023-04-15T03:29:11;2.85;;;1.13;;
75054;SDS011;63636;44.746;10.488;2023-04-15T03:31:40;2.50;;;1.00;;
75054;SDS011;63636;44.746;10.488;2023-04-15T03:34:06;1.45;;;0.85;;
75054;SDS011;63636;44.746;10.488;2023-04-15T03:36:33;2.67;;;1.00;;
75054;SDS011;63636;44.746;10.488;2023-04-15T03:39:00;3.75;;;1.10;;
75054;SDS011;63636;44.746;10.488;2023-04-15T03:41:29;1.95;;;1.05;;
75054;SDS011;63636;44.746;10.488;2023-04-15T03:43:56;4.82;;;1.02;;
75054;SDS011;63636;44.746;10.488;2023-04-15T03:46:23;3.28;;;1.10;;
75054;SDS011;63636;44.746;10.488;2023-04-15T03:48:50;2.90;;;1.17;;
75054;SDS011;63636;44.746;10.488;2023-04-15T03:51:16;5.90;;;1.20;;
75054;SDS011;63636;44.746;10.488;2023-04-15T03:53:43;4.68;;;1.27;;
75054;SDS011;63636;44.746;10.488;2023-04-15T03:56:10;5.50;;;1.40;;
75054;SDS011;63636;44.746;10.488;2023-04-15T03:58:37;3.45;;;1.50;;
75054;SDS011;63636;44.746;10.488;2023-04-15T04:01:03;3.90;;;1.50;;
75054;SDS011;63636;44.746;10.488;2023-04-15T04:03:30;3.25;;;1.40;;
75054;SDS011;63636;44.746;10.488;2023-04-15T04:05:57;2.85;;;1.40;;
75054;SDS011;63636;44.746;10.488;2023-04-15T04:08:24;3.70;;;1.60;;
75054;SDS011;63636;44.746;10.488;2023-04-15T04:10:50;3.80;;;1.60;;
75054;SDS011;63636;44.746;10.488;2023-04-15T04:13:17;4.00;;;1.60;;
75054;SDS011;63636;44.746;10.488;2023-04-15T04:15:44;6.18;;;1.60;;
75054;SDS011;63636;44.746;10.488;2023-04-15T04:18:11;4.43;;;1.75;;
75054;SDS011;63636;44.746;10.488;2023-04-15T04:20:37;2.95;;;1.60;;
75054;SDS011;63636;44.746;10.488;2023-04-15T04:23:04;5.72;;;1.83;;
75054;SDS011;63636;44.746;10.488;2023-04-15T04:25:31;4.72;;;2.00;;
75054;SDS011;63636;44.746;10.488;2023-04-15T04:27:58;5.57;;;1.73;;
75054;SDS011;63636;44.746;10.488;2023-04-15T04:30:25;4.40;;;1.60;;
75054;SDS011;63636;44.746;10.488;2023-04-15T04:32:52;3.60;;;1.65;;
75054;SDS011;63636;44.746;10.488;2023-04-15T04:35:18;4.43;;;1.90;;
75054;SDS011;63636;44.746;10.488;2023-04-15T04:37:46;4.53;;;1.90;;
75054;SDS011;63636;44.746;10.488;2023-04-15T04:40:13;3.92;;;2.10;;
75054;SDS011;63636;44.746;10.488;2023-04-15T04:42:39;5.88;;;2.00;;
75054;SDS011;63636;44.746;10.488;2023-04-15T04:45:07;4.25;;;2.10;;
75054;SDS011;63636;44.746;10.488;2023-04-15T04:47:34;4.15;;;2.00;;
75054;SDS011;63636;44.746;10.488;2023-04-15T04:50:01;5.05;;;2.03;;
75054;SDS011;63636;44.746;10.488;2023-04-15T04:52:27;5.18;;;2.10;;
75054;SDS011;63636;44.746;10.488;2023-04-15T04:54:54;4.75;;;2.05;;
75054;SDS011;63636;44.746;10.488;2023-04-15T04:57:21;4.10;;;1.73;;
75054;SDS011;63636;44.746;10.488;2023-04-15T04:59:48;5.63;;;1.60;;
75054;SDS011;63636;44.746;10.488;2023-04-15T05:02:15;3.30;;;1.63;;
75054;SDS011;63636;44.746;10.488;2023-04-15T05:04:41;4.57;;;1.70;;
75054;SDS011;63636;44.746;10.488;2023-04-15T05:07:08;4.38;;;1.70;;
75054;SDS011;63636;44.746;10.488;2023-04-15T05:09:35;3.70;;;1.80;;
75054;SDS011;63636;44.746;10.488;2023-04-15T05:12:05;3.72;;;1.50;;
75054;SDS011;63636;44.746;10.488;2023-04-15T05:14:33;5.80;;;1.92;;
75054;SDS011;63636;44.746;10.488;2023-04-15T05:17:00;6.65;;;2.00;;
75054;SDS011;63636;44.746;10.488;2023-04-15T05:19:26;8.35;;;2.30;;
75054;SDS011;63636;44.746;10.488;2023-04-15T05:21:53;10.88;;;2.10;;
75054;SDS011;63636;44.746;10.488;2023-04-15T05:24:20;6.38;;;1.67;;
75054;SDS011;63636;44.746;10.488;2023-04-15T05:26:46;2.65;;;1.50;;
75054;SDS011;63636;44.746;10.488;2023-04-15T05:29:13;5.05;;;2.08;;
75054;SDS011;63636;44.746;10.488;2023-04-15T05:31:40;3.97;;;1.50;;
75054;SDS011;63636;44.746;10.488;2023-04-15T05:34:07;5.53;;;1.90;;
75054;SDS011;63636;44.746;10.488;2023-04-15T05:36:34;3.45;;;1.50;;
75054;SDS011;63636;44.746;10.488;2023-04-15T05:39:01;4.45;;;1.67;;
75054;SDS011;63636;44.746;10.488;2023-04-15T05:41:27;2.33;;;1.42;;
75054;SDS011;63636;44.746;10.488;2023-04-15T05:43:54;3.92;;;1.65;;
75054;SDS011;63636;44.746;10.488;2023-04-15T05:46:21;4.82;;;1.73;;
75054;SDS011;63636;44.746;10.488;2023-04-15T05:48:48;4.90;;;1.90;;
75054;SDS011;63636;44.746;10.488;2023-04-15T05:51:15;3.45;;;1.50;;
75054;SDS011;63636;44.746;10.488;2023-04-15T05:53:42;9.57;;;1.67;;
75054;SDS011;63636;44.746;10.488;2023-04-15T05:56:08;4.57;;;1.52;;
75054;SDS011;63636;44.746;10.488;2023-04-15T05:58:35;7.57;;;1.67;;
75054;SDS011;63636;44.746;10.488;2023-04-15T06:01:02;5.65;;;1.75;;
75054;SDS011;63636;44.746;10.488;2023-04-15T06:03:29;3.47;;;1.30;;
75054;SDS011;63636;44.746;10.488;2023-04-15T06:05:56;3.38;;;1.60;;
75054;SDS011;63636;44.746;10.488;2023-04-15T06:08:23;6.15;;;1.23;;
75054;SDS011;63636;44.746;10.488;2023-04-15T06:10:50;3.35;;;1.10;;
75054;SDS011;63636;44.746;10.488;2023-04-15T06:13:16;4.00;;;1.20;;
75054;SDS011;63636;44.746;10.488;2023-04-15T06:15:43;5.63;;;1.30;;
75054;SDS011;63636;44.746;10.488;2023-04-15T06:18:10;4.78;;;1.20;;
75054;SDS011;63636;44.746;10.488;2023-04-15T06:20:37;3.88;;;1.13;;
75054;SDS011;63636;44.746;10.488;2023-04-15T06:23:04;4.78;;;1.30;;
75054;SDS011;63636;44.746;10.488;2023-04-15T06:25:30;4.85;;;1.27;;
75054;SDS011;63636;44.746;10.488;2023-04-15T06:27:58;3.47;;;1.20;;
75054;SDS011;63636;44.746;10.488;2023-04-15T06:30:24;4.35;;;1.42;;
75054;SDS011;63636;44.746;10.488;2023-04-15T06:32:51;7.65;;;1.23;;
75054;SDS011;63636;44.746;10.488;2023-04-15T06:35:18;3.58;;;1.10;;
75054;SDS011;63636;44.746;10.488;2023-04-15T06:37:45;6.05;;;1.33;;
75054;SDS011;63636;44.746;10.488;2023-04-15T06:40:12;5.38;;;1.20;;
75054;SDS011;63636;44.746;10.488;2023-04-15T06:42:39;3.10;;;1.20;;
75054;SDS011;63636;44.746;10.488;2023-04-15T06:45:06;5.75;;;1.35;;
75054;SDS011;63636;44.746;10.488;2023-04-15T06:47:34;4.90;;;1.27;;
75054;SDS011;63636;44.746;10.488;2023-04-15T06:50:00;5.15;;;1.30;;
75054;SDS011;63636;44.746;10.488;2023-04-15T06:52:27;5.43;;;1.48;;
75054;SDS011;63636;44.746;10.488;2023-04-15T06:54:54;4.75;;;1.27;;
75054;SDS011;63636;44.746;10.488;2023-04-15T06:57:21;7.20;;;1.80;;
75054;SDS011;63636;44.746;10.488;2023-04-15T06:59:48;3.60;;;1.63;;
75054;SDS011;63636;44.746;10.488;2023-04-15T07:02:15;5.88;;;2.00;;
75054;SDS011;63636;44.746;10.488;2023-04-15T07:04:41;7.75;;;2.20;;
75054;SDS011;63636;44.746;10.488;2023-04-15T07:07:08;8.57;;;2.20;;
75054;SDS011;63636;44.746;10.488;2023-04-15T07:09:35;5.25;;;2.30;;
75054;SDS011;63636;44.746;10.488;2023-04-15T07:12:02;5.00;;;2.42;;
75054;SDS011;63636;44.746;10.488;2023-04-15T07:14:28;6.00;;;2.88;;
75054;SDS011;63636;44.746;10.488;2023-04-15T07:16:55;7.35;;;3.42;;
75054;SDS011;63636;44.746;10.488;2023-04-15T07:19:23;8.75;;;3.22;;
75054;SDS011;63636;44.746;10.488;2023-04-15T07:21:49;6.53;;;3.00;;
75054;SDS011;63636;44.746;10.488;2023-04-15T07:24:16;6.50;;;2.92;;
75054;SDS011;63636;44.746;10.488;2023-04-15T07:26:45;6.95;;;3.05;;
75054;SDS011;63636;44.746;10.488;2023-04-15T07:29:12;5.82;;;3.08;;
75054;SDS011;63636;44.746;10.488;2023-04-15T07:31:39;6.25;;;3.30;;
75054;SDS011;63636;44.746;10.488;2023-04-15T07:34:06;6.85;;;3.20;;
75054;SDS011;63636;44.746;10.488;2023-04-15T07:36:33;8.55;;;3.30;;
75054;SDS011;63636;44.746;10.488;2023-04-15T07:38:59;6.38;;;3.40;;
75054;SDS011;63636;44.746;10.488;2023-04-15T07:41:29;7.50;;;3.20;;
75054;SDS011;63636;44.746;10.488;2023-04-15T07:43:56;7.38;;;3.50;;
75054;SDS011;63636;44.746;10.488;2023-04-15T07:46:23;7.07;;;3.25;;
75054;SDS011;63636;44.746;10.488;2023-04-15T07:48:50;6.35;;;3.42;;
75054;SDS011;63636;44.746;10.488;2023-04-15T07:51:18;5.43;;;2.80;;
75054;SDS011;63636;44.746;10.488;2023-04-15T07:53:45;6.65;;;2.83;;
75054;SDS011;63636;44.746;10.488;2023-04-15T07:56:11;5.40;;;2.72;;
75054;SDS011;63636;44.746;10.488;2023-04-15T07:58:38;6.85;;;3.03;;
75054;SDS011;63636;44.746;10.488;2023-04-15T08:01:05;6.35;;;3.25;;
75054;SDS011;63636;44.746;10.488;2023-04-15T08:03:33;6.43;;;2.78;;
75054;SDS011;63636;44.746;10.488;2023-04-15T08:06:00;5.93;;;3.05;;
75054;SDS011;63636;44.746;10.488;2023-04-15T08:08:27;6.13;;;2.90;;
75054;SDS011;63636;44.746;10.488;2023-04-15T08:10:54;3.95;;;2.53;;
75054;SDS011;63636;44.746;10.488;2023-04-15T08:13:20;5.57;;;2.65;;
75054;SDS011;63636;44.746;10.488;2023-04-15T08:18:34;6.75;;;2.78;;
75054;SDS011;63636;44.746;10.488;2023-04-15T08:21:01;6.50;;;3.00;;
75054;SDS011;63636;44.746;10.488;2023-04-15T08:23:28;6.95;;;3.00;;
75054;SDS011;63636;44.746;10.488;2023-04-15T08:25:54;6.47;;;3.13;;
75054;SDS011;63636;44.746;10.488;2023-04-15T08:28:21;7.30;;;3.13;;
75054;SDS011;63636;44.746;10.488;2023-04-15T08:30:48;6.57;;;2.95;;
75054;SDS011;63636;44.746;10.488;2023-04-15T08:33:15;5.85;;;2.90;;
75054;SDS011;63636;44.746;10.488;2023-04-15T08:35:42;6.32;;;2.60;;
75054;SDS011;63636;44.746;10.488;2023-04-15T08:38:08;6.50;;;2.88;;
75054;SDS011;63636;44.746;10.488;2023-04-15T08:40:39;4.97;;;2.90;;
75054;SDS011;63636;44.746;10.488;2023-04-15T08:45:46;8.15;;;3.08;;
75054;SDS011;63636;44.746;10.488;2023-04-15T08:48:14;5.72;;;3.00;;
75054;SDS011;63636;44.746;10.488;2023-04-15T08:50:42;4.63;;;2.58;;
75054;SDS011;63636;44.746;10.488;2023-04-15T08:53:09;5.18;;;2.70;;
75054;SDS011;63636;44.746;10.488;2023-04-15T08:55:38;6.05;;;2.92;;
75054;SDS011;63636;44.746;10.488;2023-04-15T08:58:07;8.35;;;3.00;;
75054;SDS011;63636;44.746;10.488;2023-04-15T09:00:35;6.97;;;2.70;;
75054;SDS011;63636;44.746;10.488;2023-04-15T09:03:02;6.95;;;2.90;;
75054;SDS011;63636;44.746;10.488;2023-04-15T09:05:31;5.43;;;3.10;;
75054;SDS011;63636;44.746;10.488;2023-04-15T09:07:58;5.75;;;3.03;;
75054;SDS011;63636;44.746;10.488;2023-04-15T09:10:25;7.55;;;3.67;;
75054;SDS011;63636;44.746;10.488;2023-04-15T09:12:52;6.43;;;3.33;;
75054;SDS011;63636;44.746;10.488;2023-04-15T09:15:19;7.28;;;3.20;;
75054;SDS011;63636;44.746;10.488;2023-04-15T09:17:46;6.53;;;3.00;;
75054;SDS011;63636;44.746;10.488;2023-04-15T09:20:14;6.03;;;2.80;;
75054;SDS011;63636;44.746;10.488;2023-04-15T09:22:45;6.13;;;2.83;;
75054;SDS011;63636;44.746;10.488;2023-04-15T09:27:49;5.18;;;2.75;;
75054;SDS011;63636;44.746;10.488;2023-04-15T09:30:16;6.07;;;3.05;;
75054;SDS011;63636;44.746;10.488;2023-04-15T09:32:50;7.28;;;3.00;;
75054;SDS011;63636;44.746;10.488;2023-04-15T09:35:17;6.72;;;2.88;;
75054;SDS011;63636;44.746;10.488;2023-04-15T09:37:44;7.20;;;2.80;;
75054;SDS011;63636;44.746;10.488;2023-04-15T09:40:11;6.47;;;2.63;;
75054;SDS011;63636;44.746;10.488;2023-04-15T09:42:54;6.20;;;2.90;;
75054;SDS011;63636;44.746;10.488;2023-04-15T09:45:21;6.05;;;2.92;;
75054;SDS011;63636;44.746;10.488;2023-04-15T09:47:48;5.55;;;2.60;;
75054;SDS011;63636;44.746;10.488;2023-04-15T09:50:17;4.97;;;2.85;;
75054;SDS011;63636;44.746;10.488;2023-04-15T09:52:44;7.10;;;3.30;;
75054;SDS011;63636;44.746;10.488;2023-04-15T09:55:12;5.43;;;2.78;;
75054;SDS011;63636;44.746;10.488;2023-04-15T09:57:39;5.22;;;2.53;;
75054;SDS011;63636;44.746;10.488;2023-04-15T10:00:10;5.75;;;2.90;;
75054;SDS011;63636;44.746;10.488;2023-04-15T10:02:38;6.88;;;2.90;;
75054;SDS011;63636;44.746;10.488;2023-04-15T10:05:06;7.32;;;3.00;;
75054;SDS011;63636;44.746;10.488;2023-04-15T10:07:33;6.78;;;3.45;;
75054;SDS011;63636;44.746;10.488;2023-04-15T10:10:00;6.30;;;2.90;;
75054;SDS011;63636;44.746;10.488;2023-04-15T10:12:29;6.45;;;2.50;;
75054;SDS011;63636;44.746;10.488;2023-04-15T10:15:04;6.35;;;2.50;;
75054;SDS011;63636;44.746;10.488;2023-04-15T10:17:31;5.95;;;2.60;;
75054;SDS011;63636;44.746;10.488;2023-04-15T10:20:03;4.35;;;2.30;;
75054;SDS011;63636;44.746;10.488;2023-04-15T10:22:30;5.97;;;2.47;;
75054;SDS011;63636;44.746;10.488;2023-04-15T10:24:58;4.00;;;2.58;;
75054;SDS011;63636;44.746;10.488;2023-04-15T10:27:26;5.18;;;2.65;;
75054;SDS011;63636;44.746;10.488;2023-04-15T10:29:53;7.47;;;2.70;;
75054;SDS011;63636;44.746;10.488;2023-04-15T10:32:20;6.10;;;2.85;;
75054;SDS011;63636;44.746;10.488;2023-04-15T10:34:47;7.43;;;2.60;;
75054;SDS011;63636;44.746;10.488;2023-04-15T10:37:21;5.53;;;2.70;;
75054;SDS011;63636;44.746;10.488;2023-04-15T10:39:48;6.13;;;2.60;;
75054;SDS011;63636;44.746;10.488;2023-04-15T10:42:16;6.45;;;2.72;;
75054;SDS011;63636;44.746;10.488;2023-04-15T10:44:50;6.82;;;2.72;;
75054;SDS011;63636;44.746;10.488;2023-04-15T10:47:18;6.93;;;2.60;;
75054;SDS011;63636;44.746;10.488;2023-04-15T10:49:58;5.60;;;2.50;;
75054;SDS011;63636;44.746;10.488;2023-04-15T10:52:26;6.95;;;2.67;;
75054;SDS011;63636;44.746;10.488;2023-04-15T10:55:03;5.85;;;2.22;;
75054;SDS011;63636;44.746;10.488;2023-04-15T10:57:38;5.70;;;2.30;;
75054;SDS011;63636;44.746;10.488;2023-04-15T11:00:12;6.00;;;2.58;;
75054;SDS011;63636;44.746;10.488;2023-04-15T11:05:06;7.07;;;2.70;;
75054;SDS011;63636;44.746;10.488;2023-04-15T11:13:01;5.00;;;2.25;;
75054;SDS011;63636;44.746;10.488;2023-04-15T11:17:59;4.90;;;2.70;;
75054;SDS011;63636;44.746;10.488;2023-04-15T11:20:26;5.07;;;2.28;;
75054;SDS011;63636;44.746;10.488;2023-04-15T11:22:53;4.55;;;2.28;;
75054;SDS011;63636;44.746;10.488;2023-04-15T11:27:50;6.65;;;2.63;;
75054;SDS011;63636;44.746;10.488;2023-04-15T11:30:21;6.95;;;2.40;;
75054;SDS011;63636;44.746;10.488;2023-04-15T11:32:48;5.50;;;2.70;;
75054;SDS011;63636;44.746;10.488;2023-04-15T11:35:16;3.80;;;1.92;;
75054;SDS011;63636;44.746;10.488;2023-04-15T11:37:44;5.00;;;2.40;;
75054;SDS011;63636;44.746;10.488;2023-04-15T11:40:11;3.67;;;2.10;;
75054;SDS011;63636;44.746;10.488;2023-04-15T11:42:38;4.25;;;2.00;;
75054;SDS011;63636;44.746;10.488;2023-04-15T11:45:08;7.32;;;2.22;;
75054;SDS011;63636;44.746;10.488;2023-04-15T11:47:36;4.50;;;2.40;;
75054;SDS011;63636;44.746;10.488;2023-04-15T11:50:19;6.53;;;2.80;;
75054;SDS011;63636;44.746;10.488;2023-04-15T11:52:55;6.32;;;3.00;;
75054;SDS011;63636;44.746;10.488;2023-04-15T11:55:20;6.25;;;2.85;;
75054;SDS011;63636;44.746;10.488;2023-04-15T11:57:48;4.32;;;2.50;;
75054;SDS011;63636;44.746;10.488;2023-04-15T12:00:14;4.93;;;2.50;;
75054;SDS011;63636;44.746;10.488;2023-04-15T12:02:41;4.50;;;2.50;;
75054;SDS011;63636;44.746;10.488;2023-04-15T12:05:07;5.60;;;2.92;;
75054;SDS011;63636;44.746;10.488;2023-04-15T12:07:56;5.47;;;2.50;;
75054;SDS011;63636;44.746;10.488;2023-04-15T12:10:18;5.43;;;2.47;;
75054;SDS011;63636;44.746;10.488;2023-04-15T12:12:47;4.22;;;2.30;;
75054;SDS011;63636;44.746;10.488;2023-04-15T12:15:13;4.68;;;2.35;;
75054;SDS011;63636;44.746;10.488;2023-04-15T12:17:39;5.35;;;2.58;;
75054;SDS011;63636;44.746;10.488;2023-04-15T12:20:04;5.50;;;2.60;;
75054;SDS011;63636;44.746;10.488;2023-04-15T12:22:30;4.68;;;1.88;;
75054;SDS011;63636;44.746;10.488;2023-04-15T12:25:01;5.32;;;2.30;;
75054;SDS011;63636;44.746;10.488;2023-04-15T12:27:27;3.65;;;2.25;;
75054;SDS011;63636;44.746;10.488;2023-04-15T12:30:02;5.63;;;2.50;;
75054;SDS011;63636;44.746;10.488;2023-04-15T12:32:28;4.03;;;2.47;;
75054;SDS011;63636;44.746;10.488;2023-04-15T12:34:53;4.03;;;2.35;;
75054;SDS011;63636;44.746;10.488;2023-04-15T12:37:19;4.63;;;2.10;;
75054;SDS011;63636;44.746;10.488;2023-04-15T12:39:46;5.75;;;2.30;;
75054;SDS011;63636;44.746;10.488;2023-04-15T12:42:13;4.18;;;2.15;;
75054;SDS011;63636;44.746;10.488;2023-04-15T12:44:40;4.10;;;2.30;;
75054;SDS011;63636;44.746;10.488;2023-04-15T12:47:06;3.95;;;2.30;;
75054;SDS011;63636;44.746;10.488;2023-04-15T12:49:32;4.72;;;1.92;;
75054;SDS011;63636;44.746;10.488;2023-04-15T12:51:58;5.15;;;2.40;;
75054;SDS011;63636;44.746;10.488;2023-04-15T12:54:24;4.82;;;2.20;;
75054;SDS011;63636;44.746;10.488;2023-04-15T12:56:50;5.78;;;2.60;;
75054;SDS011;63636;44.746;10.488;2023-04-15T12:59:16;7.38;;;2.70;;
75054;SDS011;63636;44.746;10.488;2023-04-15T13:01:43;5.35;;;2.60;;
75054;SDS011;63636;44.746;10.488;2023-04-15T13:04:08;5.32;;;2.55;;
75054;SDS011;63636;44.746;10.488;2023-04-15T13:06:34;3.80;;;2.35;;
75054;SDS011;63636;44.746;10.488;2023-04-15T13:09:01;4.72;;;2.85;;
75054;SDS011;63636;44.746;10.488;2023-04-15T13:11:27;5.28;;;2.80;;
75054;SDS011;63636;44.746;10.488;2023-04-15T13:13:55;4.88;;;2.40;;
75054;SDS011;63636;44.746;10.488;2023-04-15T13:16:21;5.60;;;2.70;;
75054;SDS011;63636;44.746;10.488;2023-04-15T13:18:47;5.30;;;2.50;;
75054;SDS011;63636;44.746;10.488;2023-04-15T13:21:13;3.90;;;2.35;;
75054;SDS011;63636;44.746;10.488;2023-04-15T13:23:39;4.15;;;2.10;;
75054;SDS011;63636;44.746;10.488;2023-04-15T13:26:05;3.25;;;2.00;;
75054;SDS011;63636;44.746;10.488;2023-04-15T13:28:31;6.15;;;2.55;;
75054;SDS011;63636;44.746;10.488;2023-04-15T13:30:57;3.63;;;2.17;;
75054;SDS011;63636;44.746;10.488;2023-04-15T13:33:22;4.07;;;2.08;;
75054;SDS011;63636;44.746;10.488;2023-04-15T13:35:48;5.60;;;2.50;;
75054;SDS011;63636;44.746;10.488;2023-04-15T13:38:13;4.25;;;2.22;;
75054;SDS011;63636;44.746;10.488;2023-04-15T13:40:39;4.28;;;2.35;;
75054;SDS011;63636;44.746;10.488;2023-04-15T13:43:05;4.20;;;1.80;;
75054;SDS011;63636;44.746;10.488;2023-04-15T13:45:31;3.63;;;1.67;;
75054;SDS011;63636;44.746;10.488;2023-04-15T13:47:56;4.72;;;1.80;;
75054;SDS011;63636;44.746;10.488;2023-04-15T13:50:22;3.40;;;1.83;;
75054;SDS011;63636;44.746;10.488;2023-04-15T13:52:47;4.72;;;1.92;;
75054;SDS011;63636;44.746;10.488;2023-04-15T13:55:13;3.95;;;2.17;;
75054;SDS011;63636;44.746;10.488;2023-04-15T13:57:39;3.92;;;2.10;;
75054;SDS011;63636;44.746;10.488;2023-04-15T14:00:04;3.80;;;1.75;;
75054;SDS011;63636;44.746;10.488;2023-04-15T14:02:31;3.03;;;1.92;;
75054;SDS011;63636;44.746;10.488;2023-04-15T14:04:57;4.70;;;2.63;;
75054;SDS011;63636;44.746;10.488;2023-04-15T14:07:22;4.32;;;2.10;;
75054;SDS011;63636;44.746;10.488;2023-04-15T14:09:48;4.18;;;2.20;;
75054;SDS011;63636;44.746;10.488;2023-04-15T14:12:14;4.57;;;2.33;;
75054;SDS011;63636;44.746;10.488;2023-04-15T14:14:39;6.43;;;2.80;;
75054;SDS011;63636;44.746;10.488;2023-04-15T14:17:05;5.38;;;2.40;;
75054;SDS011;63636;44.746;10.488;2023-04-15T14:19:31;3.70;;;1.83;;
75054;SDS011;63636;44.746;10.488;2023-04-15T14:21:57;5.25;;;1.92;;
75054;SDS011;63636;44.746;10.488;2023-04-15T14:24:23;3.97;;;2.10;;
75054;SDS011;63636;44.746;10.488;2023-04-15T14:26:48;6.30;;;2.17;;
75054;SDS011;63636;44.746;10.488;2023-04-15T14:29:14;4.32;;;1.98;;
75054;SDS011;63636;44.746;10.488;2023-04-15T14:31:41;2.80;;;1.60;;
75054;SDS011;63636;44.746;10.488;2023-04-15T14:34:06;4.68;;;2.10;;
75054;SDS011;63636;44.746;10.488;2023-04-15T14:36:32;2.75;;;1.70;;
75054;SDS011;63636;44.746;10.488;2023-04-15T14:38:58;3.47;;;1.90;;
75054;SDS011;63636;44.746;10.488;2023-04-15T14:41:23;4.28;;;1.75;;
75054;SDS011;63636;44.746;10.488;2023-04-15T14:43:49;4.15;;;1.70;;
75054;SDS011;63636;44.746;10.488;2023-04-15T14:46:14;5.43;;;2.38;;
75054;SDS011;63636;44.746;10.488;2023-04-15T14:48:40;5.80;;;1.88;;
75054;SDS011;63636;44.746;10.488;2023-04-15T14:51:06;4.05;;;1.70;;
75054;SDS011;63636;44.746;10.488;2023-04-15T14:53:32;7.60;;;2.25;;